Time;durP1;ratioP1;P1;durP2;ratioP2;P2;SDS_P1;SDS_P2;PMS_P1;PMS_P2;Temp;Humidity;BMP_temperature;BMP_pressure;BME280_temperature;BME280_humidity;BME280_pressure;Samples;Min_cycle;Max_cycle;Signal;HPM_P1;HPM_P2
2022/10/26 00:00:12;;;;;;;13.63;7.72;;;10.30;99.90;;;;;;7404324;19;19930;-87
2022/10/26 00:02:41;;;;;;;16.77;8.32;;;10.30;99.90;;;;;;7404932;19;20329;-87
2022/10/26 00:05:10;;;;;;;15.75;7.65;;;10.30;99.90;;;;;;7408231;19;19919;-87
2022/10/26 00:07:39;;;;;;;15.05;7.82;;;10.30;99.90;;;;;;7404868;19;19934;-88
2022/10/26 00:10:11;;;;;;;20.67;8.93;;;10.30;99.90;;;;;;7406026;19;19918;-88
2022/10/26 00:12:40;;;;;;;15.20;7.57;;;10.30;99.90;;;;;;7404457;19;20381;-87
2022/10/26 00:15:10;;;;;;;14.68;8.13;;;10.20;99.90;;;;;;7404159;19;20005;-87
2022/10/26 00:17:39;;;;;;;24.58;8.70;;;10.20;99.90;;;;;;7406450;19;20352;-87
2022/10/26 00:20:09;;;;;;;16.10;7.38;;;10.20;99.90;;;;;;7407007;19;19922;-87
2022/10/26 00:22:38;;;;;;;17.27;8.43;;;10.20;99.90;;;;;;7404372;19;19921;-88
2022/10/26 00:25:08;;;;;;;16.50;7.03;;;10.10;99.90;;;;;;7404035;19;20289;-87
2022/10/26 00:27:40;;;;;;;14.13;7.35;;;10.10;99.90;;;;;;7406092;19;19911;-87
2022/10/26 00:30:11;;;;;;;14.63;7.43;;;10.10;99.90;;;;;;7405936;19;19926;-87
2022/10/26 00:32:39;;;;;;;13.52;6.72;;;10.00;99.90;;;;;;7403380;19;20345;-87
2022/10/26 00:35:09;;;;;;;16.13;8.13;;;10.00;99.90;;;;;;7407064;19;19918;-88
2022/10/26 00:37:38;;;;;;;16.15;8.27;;;10.00;99.90;;;;;;7403939;19;19925;-87
2022/10/26 00:40:08;;;;;;;15.32;7.88;;;10.00;99.90;;;;;;7406166;19;20357;-87
2022/10/26 00:42:40;;;;;;;17.77;8.35;;;10.00;99.90;;;;;;7403551;19;19914;-87
2022/10/26 00:45:21;;;;;;;15.35;7.90;;;10.00;99.90;;;;;;7405987;19;19914;-87
2022/10/26 00:47:51;;;;;;;16.58;7.15;;;10.00;99.90;;;;;;7402722;19;19928;-87
2022/10/26 00:50:24;;;;;;;18.92;8.27;;;10.00;99.90;;;;;;7404061;19;19925;-87
2022/10/26 00:52:55;;;;;;;15.15;7.05;;;10.00;99.90;;;;;;7412463;19;19918;-87
2022/10/26 00:55:28;;;;;;;15.10;7.13;;;9.90;99.90;;;;;;7409750;19;19910;-87
2022/10/26 00:58:01;;;;;;;14.65;6.80;;;9.90;99.90;;;;;;7413444;19;19926;-87
2022/10/26 01:00:30;;;;;;;17.85;7.43;;;9.90;99.90;;;;;;7409770;19;20274;-86
2022/10/26 01:03:01;;;;;;;14.27;7.70;;;9.80;99.90;;;;;;7410270;19;19914;-87
2022/10/26 01:05:31;;;;;;;15.20;7.63;;;9.80;99.90;;;;;;7412107;19;20329;-87
2022/10/26 01:08:00;;;;;;;14.32;7.25;;;9.80;99.90;;;;;;7413026;19;19922;-87
2022/10/26 01:10:30;;;;;;;16.02;6.82;;;9.80;99.90;;;;;;7407707;19;19918;-87
2022/10/26 01:13:02;;;;;;;17.77;7.35;;;9.90;99.90;;;;;;7409379;19;19924;-87
2022/10/26 01:15:37;;;;;;;14.38;7.43;;;9.90;99.90;;;;;;7411990;19;19914;-87
2022/10/26 01:18:12;;;;;;;15.35;7.35;;;9.90;99.90;;;;;;7413167;19;20344;-88
2022/10/26 01:21:22;;;;;;;18.67;8.40;;;9.90;99.90;;;;;;7412714;19;19926;-88
2022/10/26 01:24:17;;;;;;;15.00;6.88;;;9.90;99.90;;;;;;7411199;19;19926;-87
2022/10/26 01:27:07;;;;;;;14.38;7.80;;;9.90;99.90;;;;;;7409896;19;19943;-87
2022/10/26 01:30:08;;;;;;;18.02;6.80;;;9.90;99.90;;;;;;7406250;19;19997;-87
2022/10/26 01:32:47;;;;;;;16.45;7.72;;;9.80;99.90;;;;;;7409608;19;19915;-87
2022/10/26 01:35:21;;;;;;;14.55;6.80;;;9.70;99.90;;;;;;7413350;19;19990;-88
2022/10/26 01:38:01;;;;;;;14.10;7.25;;;9.80;99.90;;;;;;7408936;19;19919;-88
2022/10/26 01:40:36;;;;;;;14.50;7.60;;;9.80;99.90;;;;;;7408925;19;20348;-87
2022/10/26 01:43:10;;;;;;;17.00;6.95;;;9.80;99.90;;;;;;7411664;19;19922;-87
2022/10/26 01:45:43;;;;;;;18.35;7.93;;;9.80;99.90;;;;;;7413381;19;19915;-87
2022/10/26 01:48:18;;;;;;;16.13;8.00;;;9.70;99.90;;;;;;7409606;19;19918;-87
2022/10/26 01:50:49;;;;;;;15.25;7.63;;;9.80;99.90;;;;;;7409296;19;19929;-87
2022/10/26 01:53:18;;;;;;;12.68;7.20;;;9.80;99.90;;;;;;7410274;19;19918;-86
2022/10/26 01:55:51;;;;;;;15.63;8.05;;;9.80;99.90;;;;;;7411639;19;19915;-87
2022/10/26 01:58:52;;;;;;;13.43;7.82;;;9.80;99.90;;;;;;7407562;19;19919;-87
2022/10/26 02:01:41;;;;;;;15.18;6.70;;;9.70;99.90;;;;;;7404160;19;19918;-87
2022/10/26 02:04:17;;;;;;;;;;;9.70;99.90;;;;;;7408952;19;19922;-87
2022/10/26 02:06:55;;;;;;;15.18;7.25;;;9.70;99.90;;;;;;7409567;19;19926;-87
2022/10/26 02:09:31;;;;;;;16.55;8.00;;;9.60;99.90;;;;;;7408178;19;19911;-87
2022/10/26 02:12:01;;;;;;;14.82;7.05;;;9.60;99.90;;;;;;7407957;19;19919;-88
2022/10/26 02:14:36;;;;;;;15.18;7.45;;;9.60;99.90;;;;;;7408393;19;19924;-88
2022/10/26 02:17:10;;;;;;;15.25;7.35;;;9.60;99.90;;;;;;7407742;19;20274;-87
2022/10/26 02:19:48;;;;;;;17.52;8.65;;;9.60;99.90;;;;;;7411368;19;19910;-87
2022/10/26 02:22:21;;;;;;;16.20;8.05;;;9.50;99.90;;;;;;7411871;19;19993;-88
2022/10/26 02:24:53;;;;;;;18.65;8.40;;;9.50;99.90;;;;;;7409155;19;19918;-88
2022/10/26 02:27:27;;;;;;;16.05;8.30;;;9.50;99.90;;;;;;7408239;19;19935;-88
2022/10/26 02:29:59;;;;;;;18.48;8.20;;;9.50;99.90;;;;;;7400291;19;20021;-89
2022/10/26 02:32:32;;;;;;;19.25;9.52;;;9.50;99.90;;;;;;7405345;19;19922;-84
2022/10/26 02:35:05;;;;;;;19.58;8.23;;;9.50;99.90;;;;;;7407687;19;19926;-83
2022/10/26 02:37:36;;;;;;;18.30;9.07;;;9.50;99.90;;;;;;7407137;19;19929;-83
2022/10/26 02:40:09;;;;;;;16.85;8.40;;;9.50;99.90;;;;;;7411274;19;19918;-83
2022/10/26 02:42:41;;;;;;;20.88;9.25;;;9.60;99.90;;;;;;7409176;19;19919;-83
2022/10/26 02:45:14;;;;;;;19.73;8.68;;;9.60;99.90;;;;;;7402432;19;19926;-84
2022/10/26 02:47:43;;;;;;;15.75;8.85;;;9.60;99.90;;;;;;7408837;19;19923;-84
2022/10/26 02:50:15;;;;;;;20.55;9.10;;;9.60;99.90;;;;;;7410067;19;20333;-84
2022/10/26 02:52:52;;;;;;;24.02;10.45;;;9.50;99.90;;;;;;7407337;19;20335;-84
2022/10/26 02:55:25;;;;;;;22.45;10.05;;;9.50;99.90;;;;;;7404668;19;20245;-83
2022/10/26 02:57:59;;;;;;;23.15;10.32;;;9.50;99.90;;;;;;7406255;19;19923;-84
2022/10/26 03:00:28;;;;;;;20.33;10.52;;;9.40;99.90;;;;;;7408935;19;20370;-84
2022/10/26 03:03:01;;;;;;;18.98;8.70;;;9.40;99.90;;;;;;7409714;19;19911;-83
2022/10/26 03:05:35;;;;;;;17.33;9.63;;;9.40;99.90;;;;;;7410393;19;19918;-84
2022/10/26 03:08:05;;;;;;;19.02;10.48;;;9.40;99.90;;;;;;7406612;19;19982;-84
2022/10/26 03:10:35;;;;;;;20.42;10.50;;;9.30;99.90;;;;;;7408900;19;19930;-83
2022/10/26 03:13:03;;;;;;;;;;;9.30;99.90;;;;;;7408665;19;20300;-83
2022/10/26 03:15:32;;;;;;;;;;;9.30;99.90;;;;;;7405153;19;19915;-84
2022/10/26 03:18:01;;;;;;;19.65;8.95;;;9.30;99.90;;;;;;7409702;19;19922;-84
2022/10/26 03:20:32;;;;;;;22.63;9.65;;;9.30;99.90;;;;;;7406059;19;19914;-84
2022/10/26 03:23:01;;;;;;;24.23;10.95;;;9.30;99.90;;;;;;7404329;19;19923;-84
2022/10/26 03:25:30;;;;;;;24.10;10.88;;;9.30;99.90;;;;;;7408005;19;19925;-83
2022/10/26 03:28:00;;;;;;;25.90;11.07;;;9.30;99.90;;;;;;7404573;19;19922;-84
2022/10/26 03:30:30;;;;;;;22.63;11.55;;;9.30;99.90;;;;;;7405519;19;20363;-84
2022/10/26 03:32:59;;;;;;;20.58;9.95;;;9.30;99.90;;;;;;7404949;19;20256;-83
2022/10/26 03:35:28;;;;;;;24.75;10.98;;;9.30;99.90;;;;;;7404028;19;19925;-84
2022/10/26 03:38:00;;;;;;;23.55;11.02;;;9.30;99.90;;;;;;7405521;19;19922;-84
2022/10/26 03:40:29;;;;;;;24.98;12.30;;;9.30;99.90;;;;;;7405806;19;19947;-84
2022/10/26 03:42:58;;;;;;;26.02;11.80;;;9.30;99.90;;;;;;7406149;19;19926;-83
2022/10/26 03:45:26;;;;;;;23.45;11.52;;;9.30;99.90;;;;;;7406667;19;19914;-84
2022/10/26 03:47:55;;;;;;;24.25;10.32;;;9.40;99.90;;;;;;7408181;19;19922;-84
2022/10/26 03:50:24;;;;;;;22.65;11.00;;;9.40;99.90;;;;;;7404986;19;19911;-84
2022/10/26 03:52:53;;;;;;;22.33;10.18;;;9.30;99.90;;;;;;7408370;19;19933;-84
2022/10/26 03:55:25;;;;;;;19.73;9.18;;;9.30;99.90;;;;;;7404930;19;19943;-83
2022/10/26 03:57:54;;;;;;;20.00;10.38;;;9.20;99.90;;;;;;7404749;19;19915;-83
2022/10/26 04:00:23;;;;;;;20.23;9.40;;;9.10;99.90;;;;;;7406410;19;19926;-84
2022/10/26 04:02:57;;;;;;;19.63;10.63;;;9.00;99.90;;;;;;7406996;19;19923;-83
2022/10/26 04:05:26;;;;;;;20.67;9.10;;;9.00;99.90;;;;;;7404949;19;19931;-84
2022/10/26 04:07:56;;;;;;;16.52;7.72;;;9.00;99.90;;;;;;7404807;19;19922;-84
2022/10/26 04:10:29;;;;;;;17.95;8.88;;;8.90;99.90;;;;;;7404401;19;20360;-83
2022/10/26 04:13:00;;;;;;;18.00;8.90;;;8.80;99.90;;;;;;7405548;19;19915;-84
2022/10/26 04:15:29;;;;;;;17.85;8.82;;;8.80;99.90;;;;;;7404131;19;19918;-84
2022/10/26 04:17:58;;;;;;;16.13;8.13;;;8.70;99.90;;;;;;7408116;19;19929;-83
2022/10/26 04:20:28;;;;;;;19.38;9.35;;;8.70;99.90;;;;;;7408211;19;19922;-83
2022/10/26 04:23:00;;;;;;;;;;;8.60;99.90;;;;;;7406543;19;20337;-83
2022/10/26 04:25:32;;;;;;;14.48;8.05;;;8.60;99.90;;;;;;7404120;19;19911;-84
2022/10/26 04:28:02;;;;;;;19.15;10.05;;;8.50;99.90;;;;;;7404096;19;19929;-84
2022/10/26 04:30:32;;;;;;;18.35;9.18;;;8.60;99.90;;;;;;7403443;19;20359;-83
2022/10/26 04:33:01;;;;;;;21.63;10.13;;;8.50;99.90;;;;;;7403923;19;19928;-83
2022/10/26 04:35:30;;;;;;;22.50;10.63;;;8.50;99.90;;;;;;7401330;19;20029;-83
2022/10/26 04:38:00;;;;;;;32.25;11.82;;;8.50;99.90;;;;;;7400629;19;19929;-83
2022/10/26 04:40:34;;;;;;;21.77;11.10;;;8.60;99.90;;;;;;7405894;19;19926;-83
2022/10/26 04:43:04;;;;;;;25.23;11.38;;;8.60;99.90;;;;;;7405690;19;20258;-84
2022/10/26 04:45:33;;;;;;;24.05;10.68;;;8.70;99.90;;;;;;7401478;19;19923;-83
2022/10/26 04:48:04;;;;;;;22.75;11.23;;;8.70;99.90;;;;;;7405493;19;19923;-83
2022/10/26 04:50:33;;;;;;;23.85;12.18;;;8.70;99.90;;;;;;7402322;19;20340;-87
2022/10/26 04:53:02;;;;;;;22.27;9.40;;;8.80;99.90;;;;;;7403596;19;19925;-88
2022/10/26 04:55:34;;;;;;;20.70;9.20;;;8.80;99.90;;;;;;7404810;19;19945;-88
2022/10/26 04:58:03;;;;;;;26.52;10.93;;;8.80;99.90;;;;;;7404064;19;19931;-87
2022/10/26 05:00:32;;;;;;;22.48;11.15;;;8.80;99.90;;;;;;7404741;19;20343;-87
2022/10/26 05:03:01;;;;;;;22.10;11.43;;;8.80;99.90;;;;;;7401208;19;19918;-88
2022/10/26 05:05:32;;;;;;;22.27;10.60;;;8.80;99.90;;;;;;7404261;19;19978;-87
2022/10/26 05:08:01;;;;;;;23.85;10.82;;;8.70;99.90;;;;;;7406587;19;19930;-87
2022/10/26 05:10:30;;;;;;;21.05;9.30;;;8.80;99.90;;;;;;7404121;19;19915;-87
2022/10/26 05:13:02;;;;;;;22.30;10.50;;;8.80;99.90;;;;;;7406783;19;19932;-87
2022/10/26 05:15:31;;;;;;;20.20;9.68;;;8.80;99.90;;;;;;7403678;19;19925;-87
2022/10/26 05:18:02;;;;;;;21.48;9.13;;;8.80;99.90;;;;;;7402421;19;19925;-87
2022/10/26 05:20:33;;;;;;;22.38;9.73;;;8.80;99.90;;;;;;7402498;19;20304;-87
2022/10/26 05:23:04;;;;;;;17.83;9.32;;;8.90;99.90;;;;;;7405002;19;20573;-87
2022/10/26 05:25:36;;;;;;;23.50;9.82;;;8.90;99.90;;;;;;7402393;19;19911;-87
2022/10/26 05:28:12;;;;;;;19.02;9.48;;;9.00;99.90;;;;;;7404620;19;19926;-88
2022/10/26 05:30:42;;;;;;;24.00;11.52;;;9.00;99.90;;;;;;7402383;19;19926;-88
2022/10/26 05:33:13;;;;;;;22.20;11.20;;;9.00;99.90;;;;;;7401146;19;19919;-87
2022/10/26 05:35:42;;;;;;;20.73;9.68;;;9.00;99.90;;;;;;7402509;19;19919;-87
2022/10/26 05:38:11;;;;;;;21.80;9.68;;;9.00;99.90;;;;;;7405206;19;20384;-87
2022/10/26 05:40:40;;;;;;;22.17;10.52;;;9.00;99.90;;;;;;7408579;19;19933;-86
2022/10/26 05:43:11;;;;;;;18.30;9.52;;;9.00;99.90;;;;;;7408740;19;19914;-86
2022/10/26 05:45:41;;;;;;;19.73;10.38;;;9.00;99.90;;;;;;7409389;19;19933;-87
2022/10/26 05:48:10;;;;;;;21.50;10.52;;;9.00;99.90;;;;;;7414692;19;19921;-86
2022/10/26 05:50:39;;;;;;;17.33;8.52;;;9.00;99.90;;;;;;7409889;19;21115;-86
2022/10/26 05:53:09;;;;;;;19.40;9.55;;;9.10;99.90;;;;;;7410459;19;19950;-89
2022/10/26 05:55:39;;;;;;;55.80;15.55;;;9.10;99.90;;;;;;7408909;19;20361;-87
2022/10/26 05:58:16;;;;;;;408.27;45.47;;;9.10;99.90;;;;;;7411477;19;19922;-86
2022/10/26 06:01:01;;;;;;;23.80;10.15;;;9.20;99.90;;;;;;7409407;19;19915;-87
2022/10/26 06:03:40;;;;;;;20.83;9.88;;;9.20;99.90;;;;;;7407979;19;19921;-83
2022/10/26 06:06:13;;;;;;;22.85;12.20;;;9.20;99.90;;;;;;7409232;19;19974;-84
2022/10/26 06:08:43;;;;;;;24.70;10.63;;;9.30;99.90;;;;;;7409257;19;19926;-86
2022/10/26 06:11:13;;;;;;;21.77;10.60;;;9.30;99.90;;;;;;7411599;19;20012;-87
2022/10/26 06:13:44;;;;;;;;;;;9.30;99.90;;;;;;7413215;19;20400;-87
2022/10/26 06:16:30;;;;;;;20.95;10.27;;;9.30;99.90;;;;;;7410179;19;19922;-87
2022/10/26 06:19:09;;;;;;;23.83;11.88;;;9.40;99.90;;;;;;7411207;19;20340;-83
2022/10/26 06:21:52;;;;;;;24.15;11.80;;;9.40;99.90;;;;;;7407249;19;19925;-84
2022/10/26 06:24:28;;;;;;;24.08;9.85;;;9.50;99.90;;;;;;7405464;19;20260;-84
2022/10/26 06:27:04;;;;;;;22.05;10.57;;;9.50;99.90;;;;;;7410969;19;20385;-84
2022/10/26 06:29:39;;;;;;;;;;;9.50;99.90;;;;;;7409967;19;19922;-82
2022/10/26 06:32:10;;;;;;;24.92;10.85;;;9.50;99.90;;;;;;7406505;19;19958;-87
2022/10/26 06:34:45;;;;;;;22.40;10.38;;;9.50;99.90;;;;;;7406549;19;19937;-87
2022/10/26 06:37:15;;;;;;;24.48;11.02;;;9.50;99.90;;;;;;7411674;19;19927;-87
2022/10/26 06:39:47;;;;;;;23.38;10.95;;;9.50;99.90;;;;;;7404505;19;19978;-87
2022/10/26 06:42:17;;;;;;;21.65;10.35;;;9.50;99.90;;;;;;7408869;19;19946;-87
2022/10/26 06:44:50;;;;;;;25.17;11.52;;;9.50;99.90;;;;;;7407242;19;20341;-88
2022/10/26 06:47:25;;;;;;;22.88;11.48;;;9.50;99.90;;;;;;7407865;19;19918;-87
2022/10/26 06:50:02;;;;;;;22.92;10.68;;;9.50;99.90;;;;;;7406823;19;20002;-87
2022/10/26 06:52:38;;;;;;;25.65;11.60;;;9.50;99.90;;;;;;7407920;19;19919;-86
2022/10/26 06:55:14;;;;;;;21.88;12.00;;;9.50;99.90;;;;;;7407056;19;19918;-87
2022/10/26 06:57:44;;;;;;;25.15;11.50;;;9.50;99.90;;;;;;7408277;19;19974;-86
2022/10/26 07:00:22;;;;;;;22.92;10.98;;;9.50;99.90;;;;;;7408181;19;19930;-87
2022/10/26 07:02:51;;;;;;;20.98;10.18;;;9.50;99.90;;;;;;7406604;19;19918;-87
2022/10/26 07:05:20;;;;;;;20.60;10.18;;;9.60;99.90;;;;;;7409483;19;19919;-87
2022/10/26 07:07:50;;;;;;;25.67;11.50;;;9.60;99.90;;;;;;7406550;19;19921;-87
2022/10/26 07:10:19;;;;;;;20.63;11.55;;;9.70;99.90;;;;;;7406206;19;19921;-87
2022/10/26 07:12:48;;;;;;;21.73;11.50;;;9.80;99.90;;;;;;7404910;19;20008;-88
2022/10/26 07:15:20;;;;;;;20.63;10.18;;;9.80;99.90;;;;;;7406095;19;19988;-87
2022/10/26 07:17:50;;;;;;;25.20;11.90;;;9.90;99.90;;;;;;7410173;19;19939;-88
2022/10/26 07:20:21;;;;;;;22.48;12.13;;;9.90;99.90;;;;;;7410601;19;20392;-87
2022/10/26 07:22:54;;;;;;;19.20;11.13;;;10.00;99.90;;;;;;7409082;19;19923;-87
2022/10/26 07:25:23;;;;;;;20.30;10.55;;;10.00;99.90;;;;;;7406034;19;19915;-87
2022/10/26 07:27:52;;;;;;;20.80;10.25;;;10.10;99.90;;;;;;7409225;19;20352;-87
2022/10/26 07:30:24;;;;;;;21.02;9.02;;;10.10;99.90;;;;;;7405813;19;19915;-87
2022/10/26 07:33:00;;;;;;;17.73;11.15;;;10.10;99.90;;;;;;7403982;19;19923;-87
2022/10/26 07:35:29;;;;;;;19.58;11.45;;;10.20;99.90;;;;;;7405819;19;19911;-87
2022/10/26 07:37:59;;;;;;;18.60;9.82;;;10.20;99.90;;;;;;7405071;19;19926;-88
2022/10/26 07:40:29;;;;;;;15.43;9.68;;;10.30;99.90;;;;;;7404780;19;19922;-87
2022/10/26 07:42:59;;;;;;;23.25;11.23;;;10.30;99.90;;;;;;7405722;19;19941;-87
2022/10/26 07:45:31;;;;;;;18.63;10.80;;;10.30;99.90;;;;;;7409960;19;19919;-87
2022/10/26 07:48:00;;;;;;;17.63;9.88;;;10.40;99.90;;;;;;7405328;19;19966;-86
2022/10/26 07:50:29;;;;;;;17.77;9.45;;;10.40;99.90;;;;;;7405436;19;19925;-87
2022/10/26 07:53:00;;;;;;;20.70;10.10;;;10.50;99.90;;;;;;7403741;19;19917;-87
2022/10/26 07:55:29;;;;;;;15.30;9.35;;;10.60;99.90;;;;;;7406748;19;19923;-87
2022/10/26 07:57:58;;;;;;;15.40;6.90;;;10.70;99.90;;;;;;7405095;19;20364;-87
2022/10/26 08:00:30;;;;;;;14.18;7.78;;;10.80;99.90;;;;;;7404745;19;19919;-88
2022/10/26 08:02:59;;;;;;;16.15;8.18;;;10.80;99.90;;;;;;7403292;19;19919;-87
2022/10/26 08:05:28;;;;;;;14.07;8.55;;;10.90;99.90;;;;;;7405221;19;19915;-88
2022/10/26 08:07:57;;;;;;;15.68;8.18;;;11.00;99.90;;;;;;7404933;19;19948;-87
2022/10/26 08:10:26;;;;;;;43.67;10.93;;;11.00;99.90;;;;;;7407055;19;19919;-88
2022/10/26 08:12:55;;;;;;;15.40;7.38;;;11.20;99.90;;;;;;7403342;19;19914;-87
2022/10/26 08:15:24;;;;;;;14.27;8.05;;;11.20;99.90;;;;;;7407063;19;19923;-87
2022/10/26 08:17:55;;;;;;;12.70;7.65;;;11.20;99.90;;;;;;7404770;19;19915;-87
2022/10/26 08:20:24;;;;;;;14.10;6.50;;;11.30;99.90;;;;;;7404708;19;19915;-87
2022/10/26 08:22:54;;;;;;;12.73;7.30;;;11.30;99.90;;;;;;7404421;19;20337;-87
2022/10/26 08:25:23;;;;;;;13.20;6.40;;;11.30;99.90;;;;;;7407048;19;19942;-88
2022/10/26 08:27:51;;;;;;;8.57;4.93;;;11.50;99.90;;;;;;7404689;19;19974;-88
2022/10/26 08:30:20;;;;;;;13.73;6.75;;;11.70;99.90;;;;;;7404345;19;20359;-88
2022/10/26 08:32:49;;;;;;;14.57;6.97;;;11.90;99.90;;;;;;7403273;19;20006;-87
2022/10/26 08:35:24;;;;;;;12.75;5.75;;;12.00;99.90;;;;;;7405417;19;19942;-88
2022/10/26 08:37:54;;;;;;;12.63;6.60;;;12.10;99.90;;;;;;7403067;19;19922;-87
2022/10/26 08:40:26;;;;;;;15.82;5.53;;;12.30;99.90;;;;;;7406479;19;20281;-87
2022/10/26 08:43:00;;;;;;;12.65;6.53;;;12.50;99.90;;;;;;7403925;19;19922;-87
2022/10/26 08:45:34;;;;;;;9.85;5.85;;;12.60;99.90;;;;;;7406506;19;19922;-87
2022/10/26 08:48:07;;;;;;;11.23;5.32;;;12.80;99.90;;;;;;7403355;19;19939;-87
2022/10/26 08:50:47;;;;;;;9.00;5.15;;;12.90;99.90;;;;;;7403974;19;19922;-88
2022/10/26 08:53:23;;;;;;;9.57;5.47;;;13.00;99.90;;;;;;7402492;19;19918;-87
2022/10/26 08:55:58;;;;;;;9.02;5.15;;;13.10;99.90;;;;;;7407450;19;19922;-88
2022/10/26 08:58:33;;;;;;;10.18;5.70;;;13.30;99.90;;;;;;7403396;19;19922;-88
2022/10/26 09:01:04;;;;;;;7.72;4.20;;;13.40;99.90;;;;;;7404254;19;19915;-87
2022/10/26 09:03:33;;;;;;;9.02;4.82;;;13.60;99.90;;;;;;7404220;19;19946;-88
2022/10/26 09:06:14;;;;;;;12.18;4.70;;;13.70;99.90;;;;;;7403253;19;19934;-88
2022/10/26 09:08:53;;;;;;;8.52;3.47;;;13.70;99.90;;;;;;7402636;19;19983;-88
2022/10/26 09:11:29;;;;;;;8.38;3.45;;;13.80;99.90;;;;;;7403239;19;19919;-88
2022/10/26 09:14:07;;;;;;;4.88;2.83;;;13.90;99.90;;;;;;7407140;19;19915;-88
2022/10/26 09:16:44;;;;;;;6.57;2.78;;;14.00;99.90;;;;;;7409099;19;19978;-89
2022/10/26 09:19:41;;;;;;;8.90;2.97;;;14.10;99.90;;;;;;7412734;19;19922;-88
2022/10/26 09:22:17;;;;;;;8.95;4.30;;;14.10;99.90;;;;;;7411325;19;19966;-89
2022/10/26 09:24:54;;;;;;;6.80;3.15;;;14.20;99.90;;;;;;7409577;19;19923;-86
2022/10/26 09:27:28;;;;;;;4.95;2.53;;;14.30;99.90;;;;;;7409700;19;19978;-88
2022/10/26 09:29:59;;;;;;;3.72;1.33;;;14.40;99.90;;;;;;7409590;19;20341;-88
2022/10/26 09:32:35;;;;;;;6.47;3.45;;;14.60;99.90;;;;;;7408626;19;19939;-89
2022/10/26 09:35:11;;;;;;;4.07;1.00;;;14.70;99.90;;;;;;7409160;19;19922;-87
2022/10/26 09:37:48;;;;;;;9.32;3.83;;;14.90;99.90;;;;;;7410475;19;19914;-88
2022/10/26 09:40:24;;;;;;;5.75;2.08;;;15.10;99.90;;;;;;7408622;19;19918;-89
2022/10/26 09:42:59;;;;;;;8.05;2.10;;;15.10;99.90;;;;;;7412504;19;19922;-89
2022/10/26 09:45:34;;;;;;;6.18;2.03;;;15.20;99.90;;;;;;7408178;19;19918;-87
2022/10/26 09:48:08;;;;;;;6.50;2.08;;;15.30;99.90;;;;;;7411449;19;19929;-88
2022/10/26 09:50:40;;;;;;;4.82;2.55;;;15.30;99.90;;;;;;7408907;19;19926;-88
2022/10/26 09:53:12;;;;;;;4.78;1.70;;;15.50;99.90;;;;;;7406964;19;19922;-88
2022/10/26 09:55:45;;;;;;;5.18;1.85;;;15.60;99.90;;;;;;7412285;19;19929;-88
2022/10/26 09:58:17;;;;;;;5.53;2.47;;;15.70;99.90;;;;;;7408066;19;19914;-88
2022/10/26 10:00:47;;;;;;;5.40;2.17;;;15.70;99.90;;;;;;7408625;19;20362;-88
2022/10/26 10:03:21;;;;;;;4.05;1.67;;;15.80;99.90;;;;;;7407965;19;19923;-88
2022/10/26 10:05:50;;;;;;;4.93;1.73;;;16.00;99.90;;;;;;7410858;19;20159;-89
2022/10/26 10:08:24;;;;;;;4.35;1.52;;;16.10;99.90;;;;;;7408258;19;19922;-89
2022/10/26 10:11:01;;;;;;;4.15;1.75;;;16.10;99.90;;;;;;7408733;19;20272;-86
2022/10/26 10:13:32;;;;;;;2.33;0.77;;;16.10;99.90;;;;;;7409647;19;19934;-87
2022/10/26 10:16:13;;;;;;;4.45;1.08;;;16.10;99.90;;;;;;7407590;19;19925;-88
2022/10/26 10:18:43;;;;;;;3.58;1.23;;;16.30;99.90;;;;;;7407927;19;19929;-87
2022/10/26 10:21:13;;;;;;;4.38;1.38;;;16.40;99.90;;;;;;7412391;19;19919;-88
2022/10/26 10:23:53;;;;;;;6.00;1.33;;;16.40;99.90;;;;;;7407712;19;19936;-88
2022/10/26 10:26:22;;;;;;;3.38;0.95;;;16.60;99.90;;;;;;7409281;19;19950;-89
2022/10/26 10:29:00;;;;;;;6.78;2.38;;;16.60;99.90;;;;;;7409515;19;19923;-88
2022/10/26 10:31:31;;;;;;;7.32;1.45;;;16.50;99.90;;;;;;7402383;19;20022;-92
2022/10/26 10:34:00;;;;;;;5.40;1.63;;;16.70;99.90;;;;;;7407224;19;19918;-89
2022/10/26 10:36:31;;;;;;;4.10;2.00;;;16.70;99.90;;;;;;7410499;19;19931;-93
2022/10/26 10:39:04;;;;;;;3.40;1.13;;;16.80;99.90;;;;;;7410812;19;19919;-93
2022/10/26 10:41:38;;;;;;;5.88;2.05;;;16.90;99.90;;;;;;7410318;19;19918;-92
2022/10/26 10:44:10;;;;;;;3.65;1.10;;;16.90;99.90;;;;;;7412002;19;19978;-93
2022/10/26 10:46:39;;;;;;;3.80;1.88;;;17.00;99.90;;;;;;7410893;19;20348;-90
2022/10/26 10:49:19;;;;;;;7.93;2.00;;;17.00;99.90;;;;;;7408562;19;19932;-94
2022/10/26 10:51:48;;;;;;;5.38;1.45;;;16.90;99.90;;;;;;7418623;19;19921;-95
2022/10/26 10:54:31;;;;;;;3.67;1.00;;;16.80;99.90;;;;;;7412889;19;20269;-96
2022/10/26 10:57:10;;;;;;;3.88;1.00;;;16.80;99.90;;;;;;7410679;19;20253;-94
2022/10/26 10:59:51;;;;;;;5.43;1.20;;;16.80;99.90;;;;;;7412236;19;19917;-92
2022/10/26 11:02:45;;;;;;;2.38;1.20;;;16.80;99.90;;;;;;7408850;19;19924;-89
2022/10/26 11:05:29;;;;;;;5.20;1.20;;;16.90;99.90;;;;;;7405421;19;19914;-90
2022/10/26 11:08:06;;;;;;;6.07;1.15;;;17.00;99.90;;;;;;7409193;19;19919;-88
2022/10/26 11:10:41;;;;;;;3.90;1.02;;;17.00;99.90;;;;;;7408132;19;19918;-88
2022/10/26 11:13:18;;;;;;;4.90;1.00;;;17.10;99.90;;;;;;7405855;19;19925;-89
2022/10/26 11:15:52;;;;;;;3.85;1.80;;;17.20;99.90;;;;;;7406622;19;20328;-89
2022/10/26 11:18:29;;;;;;;3.58;1.02;;;17.20;99.90;;;;;;7407022;19;20626;-90
2022/10/26 11:21:04;;;;;;;4.97;1.10;;;17.20;99.90;;;;;;7412688;19;19923;-96
2022/10/26 11:23:40;;;;;;;5.32;2.33;;;17.30;99.90;;;;;;7417495;19;19935;-89
2022/10/26 11:26:17;;;;;;;4.20;0.73;;;17.30;99.90;;;;;;7406340;19;19918;-88
2022/10/26 11:28:52;;;;;;;3.63;1.05;;;17.30;99.90;;;;;;7406230;19;19918;-88
2022/10/26 11:31:26;;;;;;;3.85;0.95;;;17.40;99.90;;;;;;7409863;19;19915;-88
2022/10/26 11:34:10;;;;;;;6.38;1.10;;;17.50;99.90;;;;;;7405229;19;19926;-89
2022/10/26 11:36:41;;;;;;;4.60;1.00;;;17.60;99.90;;;;;;7405688;19;19922;-90
2022/10/26 11:39:19;;;;;;;2.80;0.70;;;17.80;99.90;;;;;;7408038;19;19918;-93
2022/10/26 11:41:54;;;;;;;3.10;0.80;;;18.00;99.90;;;;;;7410156;19;19914;-94
2022/10/26 11:44:30;;;;;;;2.42;0.50;;;18.00;99.90;;;;;;7409769;19;19919;-92
2022/10/26 11:47:08;;;;;;;2.50;1.08;;;18.00;99.90;;;;;;7406430;19;19917;-91
2022/10/26 11:49:44;;;;;;;2.63;0.70;;;18.00;99.90;;;;;;7408813;19;19927;-93
2022/10/26 11:52:16;;;;;;;;;;;18.00;99.90;;;;;;7408608;19;19915;-93
2022/10/26 11:54:51;;;;;;;3.78;0.80;;;18.00;99.90;;;;;;7407777;19;19926;-93
2022/10/26 11:57:23;;;;;;;1.80;0.55;;;18.00;99.90;;;;;;7409819;19;19965;-93
2022/10/26 11:59:55;;;;;;;3.17;0.77;;;18.00;99.90;;;;;;7408890;19;19927;-92
2022/10/26 12:02:26;;;;;;;4.03;1.60;;;18.10;99.90;;;;;;7407958;19;19925;-92
2022/10/26 12:04:59;;;;;;;2.63;0.80;;;18.20;99.90;;;;;;7410380;19;19978;-93
2022/10/26 12:07:32;;;;;;;3.20;0.77;;;18.30;99.90;;;;;;7408002;19;19926;-92
2022/10/26 12:10:03;;;;;;;1.33;0.30;;;18.30;99.90;;;;;;7406283;19;19951;-91
2022/10/26 12:12:42;;;;;;;1.45;0.90;;;18.30;99.90;;;;;;7411430;19;19925;-92
2022/10/26 12:15:24;;;;;;;5.50;1.55;;;18.40;99.90;;;;;;7405628;19;19915;-92
2022/10/26 12:18:00;;;;;;;4.18;0.68;;;18.40;99.90;;;;;;7405245;19;19919;-92
2022/10/26 12:21:01;;;;;;;3.72;1.33;;;18.40;99.90;;;;;;7405440;19;19911;-91
2022/10/26 12:23:30;;;;;;;;;;;18.50;99.90;;;;;;7413231;19;20027;-92
2022/10/26 12:26:29;;;;;;;4.75;0.80;;;18.50;99.90;;;;;;7406105;19;19915;-91
2022/10/26 12:29:40;;;;;;;4.35;0.57;;;18.60;99.90;;;;;;7405547;19;19914;-91
2022/10/26 12:32:51;;;;;;;2.70;0.57;;;18.60;99.90;;;;;;7405173;19;20368;-92
2022/10/26 12:35:44;;;;;;;3.92;0.80;;;18.60;99.90;;;;;;7407622;19;19919;-92
2022/10/26 12:38:29;;;;;;;3.88;1.00;;;18.70;99.90;;;;;;7404738;19;19915;-93
2022/10/26 12:41:15;;;;;;;3.00;0.63;;;18.70;99.90;;;;;;7407142;19;19942;-93
2022/10/26 12:43:44;;;;;;;3.95;1.33;;;18.70;99.90;;;;;;7406106;19;19962;-91
2022/10/26 12:46:44;;;;;;;4.53;1.20;;;18.70;99.90;;;;;;7406061;19;20361;-93
2022/10/26 12:49:57;;;;;;;2.28;0.93;;;18.80;99.90;;;;;;7418130;19;19918;-93
2022/10/26 12:52:36;;;;;;;1.92;0.70;;;18.80;99.90;;;;;;7418207;19;19914;-93
2022/10/26 12:55:47;;;;;;;4.45;1.00;;;18.70;99.90;;;;;;7416777;19;19922;-94
2022/10/26 12:58:36;;;;;;;3.42;0.75;;;18.70;99.90;;;;;;7418612;19;19915;-94
2022/10/26 13:01:33;;;;;;;2.38;0.80;;;18.60;99.90;;;;;;7418606;19;20333;-93
2022/10/26 13:04:18;;;;;;;4.90;1.25;;;18.60;99.90;;;;;;7420038;19;19926;-93
2022/10/26 13:07:11;;;;;;;4.13;1.73;;;18.70;99.90;;;;;;7418662;19;19926;-92
2022/10/26 13:09:47;;;;;;;1.52;0.73;;;18.70;99.90;;;;;;7420154;19;19918;-94
2022/10/26 13:12:16;;;;;;;2.88;0.90;;;18.80;99.90;;;;;;7418451;19;19915;-93
2022/10/26 13:14:58;;;;;;;1.80;0.57;;;18.80;99.90;;;;;;7415850;19;19915;-94
2022/10/26 13:17:30;;;;;;;5.05;1.23;;;18.80;99.90;;;;;;7417205;19;19923;-91
2022/10/26 13:20:01;;;;;;;2.10;0.60;;;18.90;99.90;;;;;;7419665;19;19918;-94